DW2907 Weather Reports


Display with metric or nautical units.
time (UTC)temp
F
wind
direction
speed
MPH
gust
MPH
rain 1hr
in
rain 24hr
in
rain mn
in
humidity
%
barometer
mb
20221002222035 62 184 2.0 5.0 0.00 1.77 0.00 9 1021.0
20221002221912 62 137 2.0 5.0 0.00 1.77 0.00 2 1021.0
20221002112437 58 307 0.0 0.0 0.00 1.81 0.36 1 1018.4
20221002112334 58 307 0.0 0.0 0.00 1.81 0.36 1 1018.4
20221002112232 58 307 0.0 0.0 0.00 1.81 0.36 1 1018.3
20221002112136 58 307 0.0 0.0 0.00 1.81 0.36 1 1018.3
20221002112012 58 307 0.0 0.0 0.00 1.81 0.36 1 1018.3
20221002111913 58 307 0.0 0.0 0.00 1.81 0.36 1 1018.3
20221002111810 58 307 0.0 0.0 0.00 1.81 0.36 1 1018.3
20221002111739 58 307 0.0 0.0 0.00 1.81 0.36 1 1018.3
20221002111557 58 307 0.0 0.0 0.00 1.81 0.36 1 1018.2
20221002111515 58 307 0.0 0.0 0.00 1.81 0.36 1 1018.2
20221002111350 58 307 0.0 0.0 0.00 1.81 0.36 1 1018.2
20221002111247 58 307 0.0 0.0 0.00 1.81 0.36 1 1018.3
20221002111151 58 307 0.0 0.0 0.00 1.81 0.36 1 1018.3
20221002111033 58 307 0.0 0.0 0.00 1.81 0.36 1 1018.2
20221002110951 58 307 0.0 0.0 0.00 1.81 0.36 1 1018.3
20221002110826 58 307 0.0 0.0 0.00 1.81 0.36 1 1018.2
20221002110735 58 307 0.0 0.0 0.00 1.81 0.36 1 1018.2
20221002110615 58 307 0.0 0.0 0.00 1.81 0.36 1 1018.2
20221002110516 58 307 0.0 0.0 0.00 1.81 0.36 1 1018.2
20221002110414 58 307 0.0 0.0 0.00 1.81 0.36 1 1018.2
20221002110310 58 307 0.0 0.0 0.00 1.81 0.36 1 1018.2
20221002110214 58 307 0.0 0.0 0.04 1.81 0.36 1 1018.2
20221002110054 58 307 0.0 0.0 0.04 1.81 0.36 1 1018.2
20221002110037 58 307 0.0 0.0 0.01 0.36 0.36 1 1018.2
20221002110011 58 307 0.0 0.0 0.04 1.81 0.36 1 1018.2
20221002105847 58 307 0.0 0.0 0.04 1.81 0.36 1 1018.2
20221002105743 58 307 0.0 0.0 0.04 1.81 0.36 1 1018.2
20221002105652 58 307 0.0 0.0 0.04 1.81 0.36 1 1018.2
20221002105532 58 307 0.0 0.0 0.04 1.81 0.36 1 1018.2
20221002105427 58 307 0.0 0.0 0.04 1.81 0.36 1 1018.1
20221002105323 58 307 0.0 0.0 0.04 1.81 0.36 1 1018.2
20221002105228 58 307 0.0 0.0 0.04 1.81 0.36 1 1018.1
20221002105112 58 307 0.0 0.0 0.04 1.81 0.36 1 1018.2
20221002105009 58 307 0.0 0.0 0.04 1.81 0.36 1 1018.1
20221002104908 58 307 0.0 0.0 0.04 1.81 0.36 1 1018.2
20221002104804 58 307 0.0 0.0 0.04 1.81 0.36 1 1018.1
20221002104713 58 307 0.0 0.0 0.04 1.81 0.36 1 1018.1
20221002104614 58 307 0.0 0.0 0.04 1.81 0.36 1 1018.1
20221002104451 58 307 0.0 0.0 0.04 1.81 0.36 1 1018.2
20221002104348 58 307 0.0 0.0 0.04 1.81 0.36 1 1018.1
20221002104245 58 307 0.0 0.0 0.04 1.81 0.36 1 1018.2
20221002104150 58 307 0.0 0.0 0.04 1.81 0.36 1 1018.2
20221002104051 59 307 0.0 0.0 0.04 1.81 0.36 1 1018.2
20221002103928 59 307 0.0 0.0 0.04 1.81 0.36 1 1018.2
20221002103846 59 307 0.0 0.0 0.04 1.81 0.36 1 1018.2
20221002103719 59 307 0.0 0.0 0.04 1.81 0.36 1 1018.1
20221002103558 59 307 0.0 0.0 0.04 1.81 0.36 1 1018.2
20221002103455 59 307 0.0 0.0 0.04 1.81 0.36 1 1018.2
20221002103350 59 307 0.0 0.0 0.04 1.81 0.36 1 1018.1
20221002103246 59 307 0.0 0.0 0.08 1.81 0.36 1 1018.1
20221002103212 59 307 0.0 0.0 0.08 1.81 0.36 1 1018.1
20221002103117 58 307 0.0 0.0 0.02 0.36 0.36 1 1018.1
20221002103054 59 307 0.0 0.0 0.08 1.81 0.36 1 1018.2
20221002102928 59 307 0.0 0.0 0.08 1.81 0.36 1 1018.1
20221002102825 59 307 0.0 0.0 0.08 1.81 0.36 1 1018.0
20221002102734 59 307 0.0 0.0 0.08 1.81 0.36 1 1018.1
20221002102613 59 307 0.0 0.0 0.08 1.81 0.36 1 1018.0
20221002102509 59 307 0.0 0.0 0.12 1.81 0.36 1 1018.1
20221002102429 59 307 0.0 0.0 0.12 1.81 0.36 1 1018.0
20221002102305 59 307 0.0 0.0 0.12 1.81 0.36 1 1018.0
20221002102209 59 307 0.0 0.0 0.12 1.81 0.36 1 1017.9
20221002102111 59 307 0.0 0.0 0.12 1.81 0.36 1 1018.0
20221002102007 59 307 0.0 0.0 0.16 1.81 0.36 1 1018.0
20221002101842 59 307 0.0 0.0 0.16 1.81 0.36 1 1017.9
20221002101758 59 307 0.0 0.0 0.16 1.81 0.36 1 1017.8
20221002101707 59 307 0.0 0.0 0.16 1.81 0.36 1 1017.8
20221002101526 59 307 0.0 0.0 0.20 1.81 0.36 1 1017.7
20221002101353 59 307 0.0 0.0 0.20 1.81 0.36 1 1017.7
20221002101200 59 307 0.0 0.0 0.20 1.81 0.36 1 1017.6
20221002101027 59 307 0.0 0.0 0.24 1.81 0.36 1 1017.5
20221002100919 59 307 0.0 0.0 0.24 1.81 0.36 1 1017.4
20221002100831 59 307 0.0 0.0 0.24 1.81 0.36 1 1017.4
20221002100712 59 307 0.0 0.0 0.24 1.81 0.36 1 1017.3
20221002100542 59 307 0.0 0.0 0.28 1.81 0.36 1 1017.3
20221002100433 59 307 0.0 0.0 0.28 1.81 0.36 1 1017.3
20221002100323 59 307 0.0 0.0 0.28 1.77 0.35 1 1017.3
20221002100047 59 307 0.0 0.0 0.28 1.77 0.35 1 1017.3
20221002100020 59 307 0.0 0.0 0.06 0.36 0.35 1 1017.2
20221002095937 59 307 0.0 0.0 0.31 1.81 0.35 1 1017.2
20221002095831 59 307 0.0 0.0 0.31 1.81 0.35 1 1017.2
20221002095732 59 307 0.0 0.0 0.31 1.81 0.35 1 1017.1
20221002095600 59 307 0.0 0.0 0.35 1.81 0.35 1 1017.1
20221002095451 59 307 0.0 0.0 0.35 1.81 0.35 1 1017.2
20221002095342 59 307 0.0 0.0 0.39 1.81 0.35 1 1017.1
20221002095230 59 307 0.0 0.0 0.39 1.81 0.35 1 1017.1
20221002095142 59 307 0.0 0.0 0.43 1.81 0.35 1 1017.2
20221002095017 59 307 0.0 0.0 0.43 1.81 0.35 1 1017.1
20221002094908 59 307 0.0 0.0 0.43 1.81 0.35 1 1017.2
20221002064951 67 14 1.0 2.0 0.00 0.75 0.02 46 1014.3
20221002064835 67 14 1.0 2.0 0.00 0.75 0.02 47 1014.2
20221002064742 67 14 1.0 2.0 0.00 0.75 0.02 47 1014.3
20221002064636 66 14 0.0 2.0 0.00 0.15 0.02 47 1014.2
20221002064549 67 14 0.0 2.0 0.00 0.75 0.02 48 1014.3
20221002064501 67 14 1.0 2.0 0.00 0.75 0.02 47 1014.3
20221002064330 67 14 1.0 3.0 0.00 0.75 0.02 48 1014.2
20221002064226 67 14 1.0 3.0 0.00 0.75 0.02 48 1014.2
20221002064053 67 14 1.0 3.0 0.00 0.75 0.02 49 1014.3
20221002063944 67 14 1.0 3.0 0.00 0.75 0.02 52 1014.3
20221002063835 67 14 1.0 3.0 0.00 0.75 0.02 52 1014.2
20221002063737 67 14 1.0 3.0 0.00 0.75 0.02 52 1014.3
20221002063602 67 14 1.0 3.0 0.00 0.75 0.02 52 1014.2
20221002063452 67 14 1.0 3.0 0.00 0.75 0.02 51 1014.3
20221002063342 67 12 2.0 3.0 0.00 0.75 0.02 52 1014.1
20221002063220 67 12 1.0 3.0 0.00 0.75 0.02 53 1014.3
20221002063107 67 13 2.0 2.0 0.00 0.75 0.02 54 1014.3
20221002062940 68 13 1.0 3.0 0.00 0.75 0.02 53 1014.3
20221002062831 68 12 1.0 3.0 0.00 0.75 0.02 53 1014.2
20221002062732 68 11 1.0 4.0 0.00 0.75 0.02 54 1014.3
20221002062558 68 10 1.0 4.0 0.00 0.75 0.02 56 1014.2
20221002062448 68 10 1.0 4.0 0.00 0.75 0.02 56 1014.2
20221002062338 68 10 1.0 4.0 0.00 0.75 0.02 56 1014.2
20221002062254 68 10 2.0 4.0 0.00 0.75 0.02 57 1014.2
20221002062059 68 10 2.0 4.0 0.00 0.75 0.02 57 1014.1
20221002061948 68 14 2.0 5.0 0.00 0.75 0.02 57 1014.2
20221002061838 68 345 2.0 5.0 0.00 0.75 0.02 56 1014.1
20221002061725 69 345 2.0 5.0 0.00 0.75 0.02 56 1014.1
20221002061612 69 345 2.0 5.0 0.00 0.75 0.02 57 1014.1
20221002061523 68 345 1.0 5.0 0.00 0.15 0.02 57 1014.0
20221002061441 69 345 1.0 5.0 0.00 0.75 0.02 56 1014.0
20221002061353 69 323 2.0 5.0 0.00 0.75 0.02 57 1014.0
20221002061227 69 323 3.0 5.0 0.00 0.75 0.02 57 1014.0
20221002061054 69 336 2.0 4.0 0.00 0.75 0.02 57 1014.1
20221002060944 69 335 2.0 4.0 0.00 0.75 0.02 58 1014.0
20221002060834 69 335 2.0 4.0 0.00 0.75 0.02 58 1014.0
20221002060738 69 26 2.0 4.0 0.00 0.75 0.02 58 1014.0
20221002060602 69 350 2.0 4.0 0.00 0.75 0.02 57 1014.0
20221002060452 69 327 2.0 4.0 0.00 0.75 0.02 57 1014.0
20221002060342 69 324 2.0 4.0 0.00 0.75 0.02 59 1014.0
20221002060226 69 323 2.0 4.0 0.00 0.75 0.02 58 1013.9
20221002060120 69 18 2.0 5.0 0.00 0.75 0.02 58 1014.0
20221002060058 69 3 1.0 5.0 0.00 0.15 0.02 58 1014.0
20221002060031 69 47 2.0 5.0 0.00 0.75 0.02 59 1014.0
20221002055901 70 49 3.0 5.0 0.00 0.75 0.02 59 1013.9
20221002055811 70 328 3.0 5.0 0.00 0.75 0.02 59 1014.0
20221002055652 70 350 2.0 5.0 0.00 0.75 0.02 59 1014.0
20221002055519 70 305 3.0 5.0 0.00 0.75 0.02 59 1013.9
20221002055409 70 37 3.0 5.0 0.00 0.75 0.02 59 1013.8
20221002055259 70 350 2.0 5.0 0.00 0.75 0.02 58 1013.9
20221002055216 70 340 3.0 5.0 0.00 0.75 0.02 59 1013.9
20221002055021 70 355 2.0 5.0 0.00 0.75 0.02 59 1013.9
20221002054912 70 49 2.0 4.0 0.00 0.75 0.02 58 1013.8
20221002054801 70 43 3.0 4.0 0.00 0.75 0.02 59 1013.9
20221002054647 70 43 3.0 4.0 0.00 0.75 0.02 58 1013.8
20221002054512 70 350 2.0 4.0 0.00 0.75 0.02 58 1013.8
20221002054402 70 307 2.0 4.0 0.00 0.75 0.02 58 1013.8
20221002054252 70 304 2.0 4.0 0.00 0.75 0.02 57 1013.9
20221002054147 69 332 2.0 5.0 0.00 0.75 0.02 58 1013.9
20221002054035 69 345 1.0 5.0 0.00 0.75 0.02 59 1014.0
20221002053902 69 332 2.0 5.0 0.00 0.75 0.02 58 1013.9
20221002053753 69 332 3.0 5.0 0.00 0.75 0.02 59 1014.0
20221002053654 69 350 2.0 5.0 0.00 0.75 0.02 58 1013.9
20221002053541 69 338 2.0 5.0 0.00 0.75 0.02 58 1013.9
20221002053410 69 337 2.0 5.0 0.00 0.75 0.02 58 1013.9
20221002053316 69 313 2.0 5.0 0.00 0.75 0.02 56 1013.9
20221002053110 69 317 3.0 5.0 0.00 0.75 0.02 58 1013.9
20221002053000 69 328 2.0 5.0 0.00 0.75 0.02 56 1013.9
20221002052911 69 329 2.0 5.0 0.00 0.75 0.02 56 1013.8
20221002052740 69 328 3.0 5.0 0.00 0.75 0.02 57 1013.9
20221002052642 68 337 3.0 5.0 0.00 0.75 0.02 57 1013.9
20221002035625 66 122 1.0 3.0 0.00 0.75 0.02 54 1014.5
20221002035455 66 138 1.0 3.0 0.00 0.75 0.02 51 1014.5
20221002035343 66 338 1.0 3.0 0.00 0.75 0.02 51 1014.5
20221002035243 66 338 1.0 3.0 0.00 0.75 0.02 50 1014.6
20221002035108 66 338 0.0 3.0 0.00 0.75 0.02 50 1014.6
20221002034959 66 338 0.0 3.0 0.00 0.75 0.02 51 1014.6
20221002034848 66 338 1.0 6.0 0.00 0.75 0.02 51 1014.6
20221002034755 66 338 1.0 6.0 0.00 0.75 0.02 50 1014.6
20221002034646 66 198 1.0 7.0 0.00 0.15 0.02 51 1014.6
20221002034600 66 185 2.0 7.0 0.00 0.75 0.02 49 1014.6
20221002034450 66 184 1.0 7.0 0.00 0.75 0.02 49 1014.6
20221002034340 66 184 1.0 7.0 0.00 0.75 0.02 47 1014.6
20221002034231 66 96 2.0 7.0 0.00 0.75 0.02 50 1014.7
20221002034056 66 98 4.0 7.0 0.00 0.75 0.02 50 1014.7
20221002033946 66 139 4.0 7.0 0.00 0.75 0.02 48 1014.8
20221002033837 66 115 3.0 7.0 0.00 0.75 0.02 48 1014.8
20221002033738 66 124 2.0 4.0 0.00 0.75 0.02 48 1014.7
20221002033604 66 123 1.0 4.0 0.00 0.75 0.02 47 1014.7
20221002033454 66 196 1.0 4.0 0.00 0.75 0.02 51 1014.8
20221002033345 66 196 2.0 4.0 0.00 0.75 0.02 48 1014.9
20221002033224 66 134 1.0 7.0 0.00 0.75 0.02 49 1014.8
20221002033050 66 132 2.0 7.0 0.00 0.75 0.02 46 1014.8
20221002033020 65 131 2.0 7.0 0.00 0.15 0.02 46 1014.7
20221002032940 66 127 2.0 7.0 0.00 0.75 0.02 45 1014.8
20221002032829 66 192 2.0 7.0 0.00 0.75 0.02 50 1014.9
20221002032731 66 143 3.0 7.0 0.00 0.75 0.02 50 1014.9
20221002032557 66 130 3.0 7.0 0.00 0.75 0.02 50 1014.8
20221002032446 66 140 2.0 7.0 0.00 0.75 0.02 49 1014.8
20221002032338 66 287 2.0 5.0 0.00 0.75 0.02 48 1014.9
20221002032238 66 140 2.0 5.0 0.00 0.75 0.02 49 1015.0
20221002032107 66 166 2.0 4.0 0.00 0.75 0.02 47 1015.0
20221002031957 66 234 3.0 4.0 0.00 0.75 0.02 47 1015.0
20221002031848 66 253 2.0 5.0 0.00 0.75 0.02 47 1014.9
20221002031733 65 201 2.0 5.0 0.00 0.75 0.02 48 1015.0
20221002031638 65 202 1.0 5.0 0.00 0.15 0.02 47 1014.9
20221002031600 65 205 2.0 5.0 0.00 0.75 0.02 46 1015.0
20221002031448 65 223 1.0 5.0 0.00 0.75 0.02 42 1015.0
20221002031338 65 208 2.0 5.0 0.00 0.75 0.02 40 1015.1
20221002031234 65 134 2.0 5.0 0.00 0.75 0.02 42 1015.1
20221002031123 65 136 2.0 5.0 0.00 0.75 0.02 44 1015.1
20221002030950 65 137 2.0 6.0 0.00 0.75 0.02 43 1015.1
20221002030840 65 240 2.0 6.0 0.00 0.75 0.02 41 1015.0
20221002030742 65 200 2.0 6.0 0.00 0.75 0.02 42 1015.0
20221002030608 65 197 2.0 6.0 0.00 0.75 0.02 35 1015.1
20221002030457 65 184 2.0 6.0 0.00 0.75 0.02 26 1015.1
20221002030348 65 122 3.0 6.0 0.00 0.75 0.02 28 1015.1
20221002030227 65 134 2.0 5.0 0.00 0.75 0.02 28 1015.2
20221002030053 64 232 2.0 4.0 0.00 0.75 0.02 28 1015.2
20221002025944 64 232 2.0 4.0 0.00 0.83 0.02 25 1015.1
20221002025834 64 232 2.0 4.0 0.00 0.83 0.02 25 1015.2
20221002025734 64 165 2.0 4.0 0.00 0.83 0.02 21 1015.2
20221002025601 64 168 2.0 4.0 0.00 0.83 0.02 21 1015.2
20221002025450 64 154 1.0 4.0 0.00 0.83 0.02 24 1015.1
20221002025340 64 145 2.0 5.0 0.00 0.83 0.02 20 1015.2
20221002025235 64 140 2.0 5.0 0.00 0.83 0.02 20 1015.2
20221002025101 64 192 2.0 5.0 0.04 0.83 0.02 25 1015.2
20221002024952 64 173 1.0 5.0 0.04 0.83 0.02 22 1015.3
20221002024842 63 148 2.0 5.0 0.04 0.83 0.02 28 1015.3
20221002024747 63 148 3.0 5.0 0.04 0.83 0.02 27 1015.2
20221002024553 63 126 3.0 5.0 0.04 0.83 0.02 26 1015.3
20221002024444 63 130 2.0 4.0 0.04 0.83 0.02 26 1015.4
20221002024334 63 143 2.0 4.0 0.04 0.83 0.02 26 1015.3
20221002024230 63 213 2.0 4.0 0.04 0.83 0.02 25 1015.4
20221002024118 63 200 2.0 4.0 0.04 0.83 0.02 26 1015.3
20221002023947 63 199 2.0 4.0 0.04 0.83 0.02 23 1015.4
20221002023838 63 205 2.0 4.0 0.04 0.83 0.02 21 1015.5
20221002023738 63 161 2.0 4.0 0.04 0.83 0.02 20 1015.4
20221002023604 63 210 1.0 4.0 0.04 0.83 0.02 21 1015.4
20221002023456 63 211 2.0 4.0 0.04 0.83 0.02 19 1015.4
20221002023347 63 211 2.0 4.0 0.04 0.83 0.02 12 1015.5
20221002023224 63 191 1.0 5.0 0.04 0.83 0.02 10 1015.6
20221002023050 63 176 2.0 5.0 0.04 0.83 0.02 15 1015.5
20221002023027 62 176 1.0 5.0 0.01 0.17 0.02 15 1015.4
20221002023009 63 130 1.0 5.0 0.04 0.83 0.02 11 1015.5
20221002022826 63 127 1.0 5.0 0.04 0.83 0.02 10 1015.5
20221002022759 63 102 1.0 5.0 0.04 0.83 0.02 14 1015.4
20221002022602 63 211 2.0 5.0 0.04 0.83 0.02 15 1015.5
20221002022452 63 210 3.0 5.0 0.04 0.83 0.02 13 1015.4
20221002022342 62 142 3.0 5.0 0.04 0.83 0.02 14 1015.4
20221002022226 62 131 1.0 3.0 0.04 0.83 0.02 9 1015.4
20221002022116 62 138 1.0 3.0 0.04 0.83 0.02 7 1015.4
20221002022007 62 132 2.0 3.0 0.04 0.83 0.02 10 1015.4
20221002021856 62 159 1.0 3.0 0.04 0.83 0.02 7 1015.5
20221002021741 62 159 1.0 3.0 0.04 0.83 0.02 4 1015.6
20221002021628 62 159 1.0 3.0 0.04 0.83 0.02 3 1015.7
20221002021518 62 155 1.0 3.0 0.04 0.83 0.02 9 1015.8
20221002021406 62 209 1.0 3.0 0.04 0.83 0.02 9 1015.7
20221002021302 62 210 1.0 3.0 0.04 0.83 0.02 6 1015.7
20221002021057 62 126 0.0 3.0 0.04 0.83 0.02 3 1015.6
20221002020947 62 144 1.0 3.0 0.04 0.83 0.02 6 1015.6
20221002020837 62 144 1.0 3.0 0.04 0.83 0.02 8 1015.6
20221002020740 62 144 2.0 3.0 0.04 0.83 0.02 8 1015.6
20221002020606 62 143 1.0 2.0 0.04 0.83 0.02 7 1015.7
20221002020456 62 144 1.0 3.0 0.04 0.83 0.02 4 1015.6
20221002020346 62 144 1.0 3.0 0.04 0.83 0.02 1 1015.7
20221002020226 62 144 0.0 3.0 0.04 0.83 0.02 1 1015.8
20221002020052 61 144 0.0 3.0 0.04 0.83 0.02 1 1015.7
20221002015941 61 146 0.0 3.0 0.04 0.83 0.02 1 1015.6
20221002015832 61 143 1.0 3.0 0.04 0.83 0.02 1 1015.7
20221002015734 61 143 1.0 3.0 0.04 0.83 0.02 1 1015.8
20221002015558 61 126 1.0 3.0 0.04 0.83 0.02 1 1015.8
20221002015448 61 126 1.0 3.0 0.04 0.83 0.02 1 1015.7
20221002015359 61 126 1.0 5.0 0.04 0.83 0.02 1 1015.8
20221002015233 61 125 1.0 5.0 0.00 0.79 0.01 1 1015.8
20221002015047 61 148 1.0 7.0 0.00 0.79 0.01 1 1016.0
20221002014752 61 148 2.0 7.0 0.00 0.79 0.01 1 1015.9
20221002013910 61 149 0.0 2.0 0.00 0.79 0.01 1 1016.4
20221002013157 61 149 0.0 2.0 0.00 0.79 0.01 1 1016.4
20221002012703 61 149 0.0 2.0 0.00 0.79 0.01 1 1016.5
20221002012236 61 149 0.0 2.0 0.00 0.79 0.01 1 1016.5
20221002011953 61 149 0.0 2.0 0.00 0.79 0.01 1 1016.5
20221002011903 61 149 0.0 2.0 0.00 0.79 0.01 3 1016.6
20221002011728 61 149 1.0 2.0 0.00 0.79 0.01 4 1016.6
20221002011614 61 148 1.0 2.0 0.00 0.79 0.01 3 1016.6
20221002011521 60 148 0.0 2.0 0.00 0.16 0.01 3 1016.4
20221002011443 61 148 0.0 2.0 0.00 0.79 0.01 4 1016.5
20221002011334 61 148 0.0 2.0 0.00 0.79 0.01 5 1016.5
20221002011229 61 148 1.0 2.0 0.00 0.79 0.01 6 1016.5
20221002011055 61 148 1.0 2.0 0.00 0.79 0.01 7 1016.6
20221002010945 61 145 1.0 2.0 0.00 0.79 0.01 8 1016.7
20221002010836 61 145 0.0 2.0 0.00 0.79 0.01 8 1016.6
20221002010737 61 145 0.0 2.0 0.00 0.79 0.01 8 1016.7
20221002010452 61 144 0.0 3.0 0.00 0.79 0.01 9 1016.7
20221002010343 61 141 1.0 3.0 0.00 0.79 0.01 9 1016.7
20221002010243 61 141 1.0 3.0 0.00 0.79 0.01 10 1016.6
20221002010050 61 236 0.0 3.0 0.00 0.79 0.01 11 1016.8
20221002010038 61 236 0.0 5.0 0.00 0.16 0.01 12 1016.7
20221002005939 61 236 1.0 5.0 0.00 0.79 0.01 13 1016.8
20221002005829 61 236 1.0 5.0 0.00 0.79 0.01 15 1016.9
20221002005730 61 236 1.0 5.0 0.00 0.79 0.01 14 1016.8
20221002005557 61 238 1.0 5.0 0.00 0.79 0.01 12 1016.9
20221002005447 61 176 1.0 5.0 0.00 0.79 0.01 11 1016.9
20221002005336 61 176 1.0 5.0 0.00 0.79 0.01 12 1016.9
20221002005231 61 176 2.0 5.0 0.00 0.79 0.01 12 1016.9
20221002005117 61 176 3.0 6.0 0.00 0.79 0.01 10 1016.9
20221002004946 61 151 3.0 6.0 0.00 0.79 0.01 9 1016.9
20221002004836 61 139 2.0 6.0 0.00 0.79 0.01 4 1016.9
20221002004720 61 145 1.0 3.0 0.00 0.79 0.01 5 1016.9
20221002004636 61 145 1.0 3.0 0.00 0.16 0.01 6 1016.8
20221002004546 61 143 1.0 3.0 0.00 0.79 0.01 7 1016.9
20221002004435 61 206 2.0 3.0 0.00 0.79 0.01 8 1016.9
20221002004347 61 206 1.0 3.0 0.00 0.79 0.01 6 1016.8
20221002004221 61 214 0.0 3.0 0.00 0.79 0.01 7 1016.9
20221002004048 61 214 0.0 3.0 0.00 0.79 0.01 8 1016.9
20221002003937 61 214 0.0 3.0 0.00 0.79 0.01 8 1017.2
20221002003826 61 214 0.0 3.0 0.00 0.79 0.01 10 1017.2
20221002003726 61 214 1.0 7.0 0.00 0.79 0.01 12 1017.3
20221002003615 61 214 2.0 7.0 0.00 0.79 0.01 11 1017.1
20221002003506 61 226 1.0 7.0 0.00 0.79 0.01 11 1017.1
20221002003336 61 159 1.0 7.0 0.00 0.79 0.01 10 1017.0
20221002003216 61 144 0.0 7.0 0.00 0.79 0.01 11 1017.1
20221002003043 61 141 2.0 7.0 0.00 0.79 0.01 15 1017.0
20221002002933 61 130 2.0 6.0 0.00 0.79 0.01 15 1017.0
20221002002823 61 139 2.0 5.0 0.00 0.79 0.01 15 1017.0
20221002002725 61 159 2.0 5.0 0.00 0.79 0.01 14 1017.0
20221002002550 62 124 2.0 4.0 0.00 0.79 0.01 13 1017.0
20221002002442 62 136 2.0 4.0 0.00 0.79 0.01 13 1016.8
20221002002332 62 133 1.0 4.0 0.00 0.79 0.01 11 1016.8
20221002002248 62 135 1.0 3.0 0.00 0.79 0.01 9 1017.0
20221002002055 62 135 1.0 3.0 0.00 0.79 0.01 9 1016.9
20221002001946 62 134 1.0 3.0 0.00 0.79 0.01 8 1016.9
20221002001837 62 130 1.0 3.0 0.00 0.79 0.01 10 1016.9
20221002001723 62 135 2.0 3.0 0.00 0.79 0.01 11 1016.9
20221002001548 62 204 1.0 3.0 0.00 0.79 0.01 9 1016.9
20221002001522 61 204 0.0 3.0 0.00 0.16 0.01 9 1016.8
20221002001439 62 204 0.0 3.0 0.00 0.79 0.01 8 1016.8
20221002001330 62 204 1.0 3.0 0.00 0.79 0.01 11 1016.8
20221002001248 62 204 1.0 3.0 0.00 0.79 0.01 14 1016.8
20221002001053 62 206 1.0 3.0 0.00 0.79 0.01 13 1016.9
20221002000942 62 206 1.0 4.0 0.00 0.79 0.01 14 1016.9
20221002000832 62 212 1.0 4.0 0.00 0.79 0.01 17 1016.9
20221002000734 62 212 2.0 5.0 0.00 0.79 0.01 16 1016.8
20221002000621 62 130 2.0 5.0 0.00 0.79 0.01 17 1016.9
20221002000450 62 130 1.0 5.0 0.00 0.79 0.01 18 1016.9
20221002000339 62 130 1.0 5.0 0.00 0.79 0.01 19 1016.9
20221002000219 62 137 2.0 5.0 0.00 0.79 0.01 21 1017.0
20221002000136 61 137 2.0 5.0 0.00 0.16 0.01 21 1016.9
20221002000045 62 127 2.0 5.0 0.00 0.79 0.01 20 1016.9
20221001235936 62 149 2.0 4.0 0.00 0.79 0.01 19 1017.0
20221001235826 62 149 1.0 4.0 0.00 0.79 0.01 18 1016.9
20221001235728 62 133 0.0 4.0 0.00 0.79 0.01 18 1017.0
20221001235615 62 133 1.0 6.0 0.00 0.79 0.01 18 1017.0
20221001235459 62 128 2.0 6.0 0.00 0.79 0.01 17 1017.1
20221001235335 62 153 2.0 6.0 0.00 0.79 0.01 18 1017.0
20221001235230 62 134 2.0 6.0 0.00 0.79 0.01 18 1017.0
20221001235118 62 146 1.0 6.0 0.00 0.79 0.01 17 1017.0
20221001234947 62 189 2.0 6.0 0.00 0.79 0.01 21 1017.1
20221001234836 62 134 3.0 7.0 0.00 0.79 0.01 18 1017.1
20221001234739 62 134 2.0 7.0 0.00 0.79 0.01 19 1017.1
20221001234652 61 139 1.0 7.0 0.00 0.16 0.01 18 1017.0
20221001234626 62 133 2.0 7.0 0.00 0.79 0.01 20 1017.2
20221001234454 62 128 2.0 7.0 0.00 0.79 0.01 19 1017.2
20221001234350 62 204 1.0 7.0 0.00 0.79 0.01 17 1017.3
20221001234224 62 168 3.0 7.0 0.00 0.79 0.01 18 1017.3
20221001234049 62 123 3.0 7.0 0.00 0.79 0.01 17 1017.2
20221001233940 62 176 2.0 4.0 0.00 0.79 0.01 14 1017.2
20221001233850 62 195 1.0 4.0 0.00 0.79 0.01 14 1017.3
20221001233731 62 108 1.0 4.0 0.00 0.79 0.01 17 1017.3
20221001233558 62 198 2.0 4.0 0.00 0.79 0.01 16 1017.3
20221001233447 62 133 1.0 4.0 0.00 0.79 0.01 17 1017.3
20221001233338 62 134 1.0 4.0 0.00 0.79 0.01 18 1017.3
20221001233217 62 190 2.0 4.0 0.00 0.79 0.01 17 1017.4
20221001233044 62 166 2.0 4.0 0.00 0.79 0.01 14 1017.5
20221001233011 61 139 1.0 4.0 0.00 0.16 0.01 14 1017.4
20221001232934 62 139 2.0 4.0 0.00 0.79 0.01 14 1017.4
20221001232824 62 197 1.0 3.0 0.00 0.79 0.01 15 1017.4
20221001232727 62 234 1.0 3.0 0.00 0.79 0.01 18 1017.3
20221001232553 62 234 1.0 3.0 0.00 0.79 0.01 21 1017.4
20221001232443 62 234 1.0 3.0 0.00 0.79 0.01 20 1017.3
20221001232355 62 180 2.0 5.0 0.00 0.79 0.01 20 1017.4
20221001232236 62 203 2.0 6.0 0.00 0.79 0.01 21 1017.4
20221001232114 62 178 2.0 6.0 0.00 0.79 0.01 21 1017.3
20221001231950 62 137 2.0 6.0 0.00 0.79 0.01 22 1017.3
20221001231841 62 209 2.0 6.0 0.00 0.79 0.01 20 1017.3
20221001231727 62 154 1.0 6.0 0.00 0.79 0.01 20 1017.4
20221001231553 62 152 2.0 6.0 0.00 0.79 0.01 19 1017.4
20221001231527 61 152 1.0 6.0 0.00 0.16 0.01 16 1017.4
20221001231502 62 136 2.0 4.0 0.00 0.79 0.01 15 1017.6
20221001231330 62 165 2.0 6.0 0.00 0.79 0.01 14 1017.6
20221001231226 62 157 1.0 6.0 0.00 0.79 0.01 13 1017.6
20221001231052 62 170 2.0 6.0 0.00 0.79 0.01 17 1017.6
20221001230941 62 226 2.0 6.0 0.00 0.79 0.01 18 1017.7
20221001230830 62 209 2.0 6.0 0.00 0.79 0.01 16 1017.5
20221001230731 62 189 2.0 6.0 0.00 0.79 0.01 15 1017.6
20221001230555 62 147 2.0 6.0 0.00 0.79 0.01 20 1017.5
20221001230443 62 193 2.0 4.0 0.00 0.79 0.01 18 1017.4
20221001230353 62 204 2.0 4.0 0.00 0.79 0.01 17 1017.4
20221001230210 62 149 2.0 4.0 0.00 0.79 0.01 17 1017.4
20221001230056 62 157 1.0 6.0 0.00 0.79 0.01 14 1017.4
20221001225925 62 146 2.0 6.0 0.00 0.79 0.01 15 1017.4
20221001225835 62 215 2.0 6.0 0.00 0.79 0.01 14 1017.4
20221001225715 62 191 1.0 6.0 0.00 0.79 0.01 14 1017.4
20221001225541 62 257 2.0 6.0 0.00 0.79 0.01 10 1017.4
20221001225451 62 259 3.0 6.0 0.00 0.79 0.01 4 1017.4
20221001225320 62 244 2.0 6.0 0.00 0.79 0.01 3 1017.3
20221001225236 62 213 2.0 5.0 0.00 0.79 0.01 2 1017.4